sensor_id;sensor_type;location;lat;lon;timestamp;P1;durP1;ratioP1;P2;durP2;ratioP2
20150;SDS011;10236;49.638;6.830;2023-01-10T00:02:10;232.40;;;48.07;;
20150;SDS011;10236;49.638;6.830;2023-01-10T00:04:45;72.80;;;14.40;;
20150;SDS011;10236;49.638;6.830;2023-01-10T00:07:11;8.20;;;2.57;;
20150;SDS011;10236;49.638;6.830;2023-01-10T00:09:39;69.03;;;17.50;;
20150;SDS011;10236;49.638;6.830;2023-01-10T00:12:08;83.90;;;22.27;;
20150;SDS011;10236;49.638;6.830;2023-01-10T00:14:56;29.73;;;7.77;;
20150;SDS011;10236;49.638;6.830;2023-01-10T00:17:44;7.03;;;2.03;;
20150;SDS011;10236;49.638;6.830;2023-01-10T00:20:14;37.50;;;11.73;;
20150;SDS011;10236;49.638;6.830;2023-01-10T00:22:46;44.53;;;12.30;;
20150;SDS011;10236;49.638;6.830;2023-01-10T00:25:17;40.23;;;14.53;;
20150;SDS011;10236;49.638;6.830;2023-01-10T00:27:45;31.37;;;12.20;;
20150;SDS011;10236;49.638;6.830;2023-01-10T00:30:13;35.50;;;15.30;;
20150;SDS011;10236;49.638;6.830;2023-01-10T00:32:46;14.80;;;8.23;;
20150;SDS011;10236;49.638;6.830;2023-01-10T00:35:19;8.20;;;3.40;;
20150;SDS011;10236;49.638;6.830;2023-01-10T00:40:53;16.07;;;6.50;;
20150;SDS011;10236;49.638;6.830;2023-01-10T00:43:49;17.17;;;6.00;;
20150;SDS011;10236;49.638;6.830;2023-01-10T00:46:21;25.60;;;9.57;;
20150;SDS011;10236;49.638;6.830;2023-01-10T00:51:43;11.27;;;4.37;;
20150;SDS011;10236;49.638;6.830;2023-01-10T00:54:41;11.07;;;4.30;;
20150;SDS011;10236;49.638;6.830;2023-01-10T01:00:44;11.13;;;4.90;;
20150;SDS011;10236;49.638;6.830;2023-01-10T01:03:17;11.67;;;5.10;;
20150;SDS011;10236;49.638;6.830;2023-01-10T01:05:52;8.87;;;4.40;;
20150;SDS011;10236;49.638;6.830;2023-01-10T01:08:18;9.87;;;4.50;;
20150;SDS011;10236;49.638;6.830;2023-01-10T01:10:47;11.63;;;5.43;;
20150;SDS011;10236;49.638;6.830;2023-01-10T01:13:18;11.90;;;6.00;;
20150;SDS011;10236;49.638;6.830;2023-01-10T01:15:47;19.23;;;5.97;;
20150;SDS011;10236;49.638;6.830;2023-01-10T01:18:19;15.37;;;6.20;;
20150;SDS011;10236;49.638;6.830;2023-01-10T01:20:46;17.37;;;5.37;;
20150;SDS011;10236;49.638;6.830;2023-01-10T01:23:15;12.57;;;4.80;;
20150;SDS011;10236;49.638;6.830;2023-01-10T01:25:41;10.90;;;4.70;;
20150;SDS011;10236;49.638;6.830;2023-01-10T01:28:08;9.93;;;4.33;;
20150;SDS011;10236;49.638;6.830;2023-01-10T01:30:54;14.17;;;5.43;;
20150;SDS011;10236;49.638;6.830;2023-01-10T01:33:20;13.07;;;4.90;;
20150;SDS011;10236;49.638;6.830;2023-01-10T01:35:49;19.23;;;4.90;;
20150;SDS011;10236;49.638;6.830;2023-01-10T01:38:18;17.30;;;4.50;;
20150;SDS011;10236;49.638;6.830;2023-01-10T01:40:51;16.83;;;4.47;;
20150;SDS011;10236;49.638;6.830;2023-01-10T01:43:27;21.97;;;5.30;;
20150;SDS011;10236;49.638;6.830;2023-01-10T01:46:16;14.47;;;5.20;;
20150;SDS011;10236;49.638;6.830;2023-01-10T01:48:45;19.83;;;4.83;;
20150;SDS011;10236;49.638;6.830;2023-01-10T01:51:18;19.23;;;4.87;;
20150;SDS011;10236;49.638;6.830;2023-01-10T01:53:53;17.07;;;4.53;;
20150;SDS011;10236;49.638;6.830;2023-01-10T01:56:45;16.40;;;4.40;;
20150;SDS011;10236;49.638;6.830;2023-01-10T01:59:29;13.27;;;4.30;;
20150;SDS011;10236;49.638;6.830;2023-01-10T02:02:01;20.00;;;4.90;;
20150;SDS011;10236;49.638;6.830;2023-01-10T02:04:28;20.77;;;4.70;;
20150;SDS011;10236;49.638;6.830;2023-01-10T02:06:56;15.77;;;4.90;;
20150;SDS011;10236;49.638;6.830;2023-01-10T02:09:40;14.60;;;5.40;;
20150;SDS011;10236;49.638;6.830;2023-01-10T02:12:09;15.97;;;3.93;;
20150;SDS011;10236;49.638;6.830;2023-01-10T02:14:51;18.77;;;4.13;;
20150;SDS011;10236;49.638;6.830;2023-01-10T02:17:20;15.33;;;3.87;;
20150;SDS011;10236;49.638;6.830;2023-01-10T02:20:10;16.50;;;3.90;;
20150;SDS011;10236;49.638;6.830;2023-01-10T02:33:25;17.73;;;4.87;;
20150;SDS011;10236;49.638;6.830;2023-01-10T02:39:10;19.40;;;4.70;;
20150;SDS011;10236;49.638;6.830;2023-01-10T02:44:28;20.57;;;4.30;;
20150;SDS011;10236;49.638;6.830;2023-01-10T02:47:02;16.50;;;4.53;;
20150;SDS011;10236;49.638;6.830;2023-01-10T02:49:39;21.03;;;5.57;;
20150;SDS011;10236;49.638;6.830;2023-01-10T02:52:05;27.23;;;5.47;;
20150;SDS011;10236;49.638;6.830;2023-01-10T02:54:31;17.90;;;5.67;;
20150;SDS011;10236;49.638;6.830;2023-01-10T02:57:23;15.60;;;4.40;;
20150;SDS011;10236;49.638;6.830;2023-01-10T03:02:43;23.30;;;5.47;;
20150;SDS011;10236;49.638;6.830;2023-01-10T03:05:28;27.47;;;5.57;;
20150;SDS011;10236;49.638;6.830;2023-01-10T03:08:08;14.83;;;4.80;;
20150;SDS011;10236;49.638;6.830;2023-01-10T03:10:50;14.47;;;4.90;;
20150;SDS011;10236;49.638;6.830;2023-01-10T03:13:34;27.50;;;5.70;;
20150;SDS011;10236;49.638;6.830;2023-01-10T03:16:01;19.33;;;4.57;;
20150;SDS011;10236;49.638;6.830;2023-01-10T03:18:33;23.93;;;5.13;;
20150;SDS011;10236;49.638;6.830;2023-01-10T03:21:01;21.80;;;4.67;;
20150;SDS011;10236;49.638;6.830;2023-01-10T03:23:29;20.17;;;5.60;;
20150;SDS011;10236;49.638;6.830;2023-01-10T03:25:56;21.60;;;4.80;;
20150;SDS011;10236;49.638;6.830;2023-01-10T03:31:32;20.20;;;4.20;;
20150;SDS011;10236;49.638;6.830;2023-01-10T03:34:01;28.73;;;4.57;;
20150;SDS011;10236;49.638;6.830;2023-01-10T03:36:28;24.13;;;5.40;;
20150;SDS011;10236;49.638;6.830;2023-01-10T03:38:56;25.47;;;5.37;;
20150;SDS011;10236;49.638;6.830;2023-01-10T03:41:32;18.67;;;4.63;;
20150;SDS011;10236;49.638;6.830;2023-01-10T03:44:11;18.80;;;5.33;;
20150;SDS011;10236;49.638;6.830;2023-01-10T03:47:02;18.43;;;6.23;;
20150;SDS011;10236;49.638;6.830;2023-01-10T03:49:29;25.17;;;6.20;;
20150;SDS011;10236;49.638;6.830;2023-01-10T03:52:00;21.10;;;6.63;;
20150;SDS011;10236;49.638;6.830;2023-01-10T03:54:27;23.13;;;6.07;;
20150;SDS011;10236;49.638;6.830;2023-01-10T03:56:53;24.43;;;5.73;;
20150;SDS011;10236;49.638;6.830;2023-01-10T03:59:20;24.47;;;7.47;;
20150;SDS011;10236;49.638;6.830;2023-01-10T04:01:47;23.00;;;5.97;;
20150;SDS011;10236;49.638;6.830;2023-01-10T04:04:13;19.30;;;5.77;;
20150;SDS011;10236;49.638;6.830;2023-01-10T04:06:39;23.00;;;6.60;;
20150;SDS011;10236;49.638;6.830;2023-01-10T04:09:05;26.43;;;6.07;;
20150;SDS011;10236;49.638;6.830;2023-01-10T04:11:31;17.60;;;4.83;;
20150;SDS011;10236;49.638;6.830;2023-01-10T04:13:57;20.23;;;6.67;;
20150;SDS011;10236;49.638;6.830;2023-01-10T04:16:23;24.20;;;7.10;;
20150;SDS011;10236;49.638;6.830;2023-01-10T04:18:49;26.27;;;6.93;;
20150;SDS011;10236;49.638;6.830;2023-01-10T04:21:15;21.47;;;5.73;;
20150;SDS011;10236;49.638;6.830;2023-01-10T04:23:41;31.37;;;7.10;;
20150;SDS011;10236;49.638;6.830;2023-01-10T04:26:08;28.23;;;6.90;;
20150;SDS011;10236;49.638;6.830;2023-01-10T04:28:34;21.20;;;6.23;;
20150;SDS011;10236;49.638;6.830;2023-01-10T04:31:00;23.17;;;6.83;;
20150;SDS011;10236;49.638;6.830;2023-01-10T04:33:26;22.17;;;6.57;;
20150;SDS011;10236;49.638;6.830;2023-01-10T04:35:52;20.00;;;6.83;;
20150;SDS011;10236;49.638;6.830;2023-01-10T04:38:19;21.90;;;7.93;;
20150;SDS011;10236;49.638;6.830;2023-01-10T04:40:50;28.50;;;7.63;;
20150;SDS011;10236;49.638;6.830;2023-01-10T04:43:17;24.33;;;6.90;;
20150;SDS011;10236;49.638;6.830;2023-01-10T04:45:43;22.67;;;7.20;;
20150;SDS011;10236;49.638;6.830;2023-01-10T04:48:08;26.70;;;8.70;;
20150;SDS011;10236;49.638;6.830;2023-01-10T04:50:34;25.27;;;7.57;;
20150;SDS011;10236;49.638;6.830;2023-01-10T04:53:00;26.50;;;7.40;;
20150;SDS011;10236;49.638;6.830;2023-01-10T04:55:26;29.27;;;8.57;;
20150;SDS011;10236;49.638;6.830;2023-01-10T04:57:52;33.03;;;7.93;;
20150;SDS011;10236;49.638;6.830;2023-01-10T05:00:18;27.67;;;8.07;;
20150;SDS011;10236;49.638;6.830;2023-01-10T05:02:44;22.93;;;7.10;;
20150;SDS011;10236;49.638;6.830;2023-01-10T05:05:11;19.93;;;6.60;;
20150;SDS011;10236;49.638;6.830;2023-01-10T05:07:37;16.37;;;5.90;;
20150;SDS011;10236;49.638;6.830;2023-01-10T05:10:04;26.57;;;6.47;;
20150;SDS011;10236;49.638;6.830;2023-01-10T05:12:30;21.13;;;6.37;;
20150;SDS011;10236;49.638;6.830;2023-01-10T05:14:56;26.30;;;6.57;;
20150;SDS011;10236;49.638;6.830;2023-01-10T05:17:22;22.03;;;5.50;;
20150;SDS011;10236;49.638;6.830;2023-01-10T05:19:48;21.90;;;5.80;;
20150;SDS011;10236;49.638;6.830;2023-01-10T05:22:14;22.10;;;4.97;;
20150;SDS011;10236;49.638;6.830;2023-01-10T05:24:40;16.27;;;4.27;;
20150;SDS011;10236;49.638;6.830;2023-01-10T05:27:06;22.23;;;5.07;;
20150;SDS011;10236;49.638;6.830;2023-01-10T05:29:32;14.77;;;3.00;;
20150;SDS011;10236;49.638;6.830;2023-01-10T05:31:59;19.50;;;3.50;;
20150;SDS011;10236;49.638;6.830;2023-01-10T05:34:25;15.37;;;3.20;;
20150;SDS011;10236;49.638;6.830;2023-01-10T05:36:51;14.53;;;3.33;;
20150;SDS011;10236;49.638;6.830;2023-01-10T05:39:16;12.87;;;2.83;;
20150;SDS011;10236;49.638;6.830;2023-01-10T05:41:43;21.33;;;4.83;;
20150;SDS011;10236;49.638;6.830;2023-01-10T05:44:09;18.53;;;4.93;;
20150;SDS011;10236;49.638;6.830;2023-01-10T05:46:35;21.63;;;3.67;;
20150;SDS011;10236;49.638;6.830;2023-01-10T05:49:01;20.30;;;4.57;;
20150;SDS011;10236;49.638;6.830;2023-01-10T05:51:28;18.47;;;3.60;;
20150;SDS011;10236;49.638;6.830;2023-01-10T05:53:54;19.00;;;3.60;;
20150;SDS011;10236;49.638;6.830;2023-01-10T05:56:21;16.43;;;3.00;;
20150;SDS011;10236;49.638;6.830;2023-01-10T05:58:47;14.03;;;3.53;;
20150;SDS011;10236;49.638;6.830;2023-01-10T06:01:13;14.57;;;3.50;;
20150;SDS011;10236;49.638;6.830;2023-01-10T06:03:39;16.67;;;4.03;;
20150;SDS011;10236;49.638;6.830;2023-01-10T06:06:05;21.70;;;4.70;;
20150;SDS011;10236;49.638;6.830;2023-01-10T06:08:31;20.10;;;3.90;;
20150;SDS011;10236;49.638;6.830;2023-01-10T06:10:57;19.97;;;3.87;;
20150;SDS011;10236;49.638;6.830;2023-01-10T06:13:23;28.73;;;3.70;;
20150;SDS011;10236;49.638;6.830;2023-01-10T06:15:49;21.10;;;4.40;;
20150;SDS011;10236;49.638;6.830;2023-01-10T06:18:15;22.33;;;4.33;;
20150;SDS011;10236;49.638;6.830;2023-01-10T06:20:43;20.40;;;5.60;;
20150;SDS011;10236;49.638;6.830;2023-01-10T06:23:10;23.73;;;5.07;;
20150;SDS011;10236;49.638;6.830;2023-01-10T06:25:36;17.33;;;5.83;;
20150;SDS011;10236;49.638;6.830;2023-01-10T06:28:05;20.90;;;5.40;;
20150;SDS011;10236;49.638;6.830;2023-01-10T06:30:31;24.80;;;5.80;;
20150;SDS011;10236;49.638;6.830;2023-01-10T06:33:08;21.87;;;5.17;;
20150;SDS011;10236;49.638;6.830;2023-01-10T06:35:34;22.23;;;4.53;;
20150;SDS011;10236;49.638;6.830;2023-01-10T06:38:00;23.10;;;4.73;;
20150;SDS011;10236;49.638;6.830;2023-01-10T06:40:27;25.97;;;5.70;;
20150;SDS011;10236;49.638;6.830;2023-01-10T06:42:53;23.37;;;5.70;;
20150;SDS011;10236;49.638;6.830;2023-01-10T06:45:19;34.87;;;8.33;;
20150;SDS011;10236;49.638;6.830;2023-01-10T06:47:45;33.03;;;8.97;;
20150;SDS011;10236;49.638;6.830;2023-01-10T06:50:11;28.80;;;8.83;;
20150;SDS011;10236;49.638;6.830;2023-01-10T06:52:38;23.53;;;7.07;;
20150;SDS011;10236;49.638;6.830;2023-01-10T06:55:04;21.93;;;6.60;;
20150;SDS011;10236;49.638;6.830;2023-01-10T06:57:31;24.13;;;5.73;;
20150;SDS011;10236;49.638;6.830;2023-01-10T06:59:59;25.03;;;6.70;;
20150;SDS011;10236;49.638;6.830;2023-01-10T07:02:25;27.47;;;7.60;;
20150;SDS011;10236;49.638;6.830;2023-01-10T07:04:52;28.40;;;7.60;;
20150;SDS011;10236;49.638;6.830;2023-01-10T07:07:18;28.77;;;6.60;;
20150;SDS011;10236;49.638;6.830;2023-01-10T07:09:44;28.70;;;6.70;;
20150;SDS011;10236;49.638;6.830;2023-01-10T07:12:10;19.63;;;5.17;;
20150;SDS011;10236;49.638;6.830;2023-01-10T07:14:36;22.90;;;5.83;;
20150;SDS011;10236;49.638;6.830;2023-01-10T07:17:02;35.30;;;6.90;;
20150;SDS011;10236;49.638;6.830;2023-01-10T07:19:28;18.40;;;6.03;;
20150;SDS011;10236;49.638;6.830;2023-01-10T07:21:54;20.27;;;5.30;;
20150;SDS011;10236;49.638;6.830;2023-01-10T07:24:20;24.07;;;6.30;;
20150;SDS011;10236;49.638;6.830;2023-01-10T07:26:46;19.80;;;5.70;;
20150;SDS011;10236;49.638;6.830;2023-01-10T07:29:12;29.80;;;8.50;;
20150;SDS011;10236;49.638;6.830;2023-01-10T07:31:38;28.93;;;7.27;;
20150;SDS011;10236;49.638;6.830;2023-01-10T07:34:04;27.33;;;7.03;;
20150;SDS011;10236;49.638;6.830;2023-01-10T07:36:30;41.83;;;15.80;;
20150;SDS011;10236;49.638;6.830;2023-01-10T07:38:56;40.70;;;13.90;;
20150;SDS011;10236;49.638;6.830;2023-01-10T07:44:10;28.57;;;8.80;;
20150;SDS011;10236;49.638;6.830;2023-01-10T07:46:39;23.20;;;6.90;;
20150;SDS011;10236;49.638;6.830;2023-01-10T07:49:04;24.80;;;6.27;;
20150;SDS011;10236;49.638;6.830;2023-01-10T07:51:30;30.37;;;6.67;;
20150;SDS011;10236;49.638;6.830;2023-01-10T07:53:57;24.87;;;6.03;;
20150;SDS011;10236;49.638;6.830;2023-01-10T07:56:23;23.83;;;5.93;;
20150;SDS011;10236;49.638;6.830;2023-01-10T07:58:49;24.20;;;6.60;;
20150;SDS011;10236;49.638;6.830;2023-01-10T08:01:15;23.53;;;7.43;;
20150;SDS011;10236;49.638;6.830;2023-01-10T08:03:41;31.43;;;7.37;;
20150;SDS011;10236;49.638;6.830;2023-01-10T08:06:07;19.90;;;5.87;;
20150;SDS011;10236;49.638;6.830;2023-01-10T08:08:35;21.13;;;5.90;;
20150;SDS011;10236;49.638;6.830;2023-01-10T08:11:01;26.67;;;6.30;;
20150;SDS011;10236;49.638;6.830;2023-01-10T08:13:28;24.40;;;5.73;;
20150;SDS011;10236;49.638;6.830;2023-01-10T08:16:03;25.43;;;6.03;;
20150;SDS011;10236;49.638;6.830;2023-01-10T08:18:30;31.30;;;9.90;;
20150;SDS011;10236;49.638;6.830;2023-01-10T08:20:59;28.03;;;7.27;;
20150;SDS011;10236;49.638;6.830;2023-01-10T08:23:28;25.27;;;7.07;;
20150;SDS011;10236;49.638;6.830;2023-01-10T08:25:54;25.33;;;5.97;;
20150;SDS011;10236;49.638;6.830;2023-01-10T08:28:28;22.67;;;6.87;;
20150;SDS011;10236;49.638;6.830;2023-01-10T08:30:54;24.00;;;6.73;;
20150;SDS011;10236;49.638;6.830;2023-01-10T08:33:20;31.10;;;7.20;;
20150;SDS011;10236;49.638;6.830;2023-01-10T08:35:48;21.27;;;6.17;;
20150;SDS011;10236;49.638;6.830;2023-01-10T08:38:14;26.43;;;6.77;;
20150;SDS011;10236;49.638;6.830;2023-01-10T08:40:40;23.13;;;6.63;;
20150;SDS011;10236;49.638;6.830;2023-01-10T08:43:07;31.33;;;8.00;;
20150;SDS011;10236;49.638;6.830;2023-01-10T08:45:34;42.60;;;14.63;;
20150;SDS011;10236;49.638;6.830;2023-01-10T08:48:03;23.03;;;7.57;;
20150;SDS011;10236;49.638;6.830;2023-01-10T08:50:29;24.47;;;6.93;;
20150;SDS011;10236;49.638;6.830;2023-01-10T08:52:56;27.17;;;6.80;;
20150;SDS011;10236;49.638;6.830;2023-01-10T08:55:23;29.87;;;8.10;;
20150;SDS011;10236;49.638;6.830;2023-01-10T08:57:49;28.37;;;7.17;;
20150;SDS011;10236;49.638;6.830;2023-01-10T09:00:15;28.47;;;9.60;;
20150;SDS011;10236;49.638;6.830;2023-01-10T09:02:41;24.17;;;8.03;;
20150;SDS011;10236;49.638;6.830;2023-01-10T09:05:08;24.37;;;7.20;;
20150;SDS011;10236;49.638;6.830;2023-01-10T09:07:34;25.20;;;8.43;;
20150;SDS011;10236;49.638;6.830;2023-01-10T09:10:02;29.40;;;8.63;;
20150;SDS011;10236;49.638;6.830;2023-01-10T09:12:29;29.67;;;9.47;;
20150;SDS011;10236;49.638;6.830;2023-01-10T09:15:13;23.43;;;8.03;;
20150;SDS011;10236;49.638;6.830;2023-01-10T09:17:39;33.73;;;8.67;;
20150;SDS011;10236;49.638;6.830;2023-01-10T09:20:05;30.43;;;8.67;;
20150;SDS011;10236;49.638;6.830;2023-01-10T09:22:34;32.97;;;8.33;;
20150;SDS011;10236;49.638;6.830;2023-01-10T09:25:00;26.17;;;8.57;;
20150;SDS011;10236;49.638;6.830;2023-01-10T09:27:26;33.27;;;9.30;;
20150;SDS011;10236;49.638;6.830;2023-01-10T09:29:52;25.97;;;9.47;;
20150;SDS011;10236;49.638;6.830;2023-01-10T09:32:18;29.63;;;8.63;;
20150;SDS011;10236;49.638;6.830;2023-01-10T09:34:44;27.60;;;9.27;;
20150;SDS011;10236;49.638;6.830;2023-01-10T09:37:10;30.73;;;7.60;;
20150;SDS011;10236;49.638;6.830;2023-01-10T09:39:36;23.97;;;7.70;;
20150;SDS011;10236;49.638;6.830;2023-01-10T09:52:25;25.87;;;6.90;;
20150;SDS011;10236;49.638;6.830;2023-01-10T09:54:55;23.10;;;7.33;;
20150;SDS011;10236;49.638;6.830;2023-01-10T09:57:22;25.90;;;7.57;;
20150;SDS011;10236;49.638;6.830;2023-01-10T09:59:48;24.30;;;7.70;;
20150;SDS011;10236;49.638;6.830;2023-01-10T10:02:33;14.47;;;6.27;;
20150;SDS011;10236;49.638;6.830;2023-01-10T10:05:21;21.20;;;6.93;;
20150;SDS011;10236;49.638;6.830;2023-01-10T10:07:59;30.37;;;8.20;;
20150;SDS011;10236;49.638;6.830;2023-01-10T10:10:38;24.27;;;6.20;;
20150;SDS011;10236;49.638;6.830;2023-01-10T10:27:23;16.50;;;4.80;;
20150;SDS011;10236;49.638;6.830;2023-01-10T10:32:30;27.23;;;5.90;;
20150;SDS011;10236;49.638;6.830;2023-01-10T10:35:00;14.87;;;4.97;;
20150;SDS011;10236;49.638;6.830;2023-01-10T10:37:27;21.23;;;4.57;;
20150;SDS011;10236;49.638;6.830;2023-01-10T10:40:05;24.17;;;4.63;;
20150;SDS011;10236;49.638;6.830;2023-01-10T10:42:33;17.77;;;5.83;;
20150;SDS011;10236;49.638;6.830;2023-01-10T10:45:02;21.20;;;5.03;;
20150;SDS011;10236;49.638;6.830;2023-01-10T10:47:33;18.53;;;5.60;;
20150;SDS011;10236;49.638;6.830;2023-01-10T10:50:14;20.80;;;4.63;;
20150;SDS011;10236;49.638;6.830;2023-01-10T10:52:59;16.97;;;4.77;;
20150;SDS011;10236;49.638;6.830;2023-01-10T10:55:33;43.57;;;15.40;;
20150;SDS011;10236;49.638;6.830;2023-01-10T11:00:47;22.80;;;4.70;;
20150;SDS011;10236;49.638;6.830;2023-01-10T11:03:46;24.63;;;4.83;;
20150;SDS011;10236;49.638;6.830;2023-01-10T11:06:29;23.47;;;7.07;;
20150;SDS011;10236;49.638;6.830;2023-01-10T11:09:05;26.20;;;5.40;;
20150;SDS011;10236;49.638;6.830;2023-01-10T11:11:49;22.90;;;4.50;;
20150;SDS011;10236;49.638;6.830;2023-01-10T11:17:30;57.37;;;20.10;;
20150;SDS011;10236;49.638;6.830;2023-01-10T11:19:59;23.17;;;7.20;;
20150;SDS011;10236;49.638;6.830;2023-01-10T11:25:23;20.23;;;4.80;;
20150;SDS011;10236;49.638;6.830;2023-01-10T11:27:53;19.33;;;4.50;;
20150;SDS011;10236;49.638;6.830;2023-01-10T11:30:20;20.70;;;4.30;;
20150;SDS011;10236;49.638;6.830;2023-01-10T11:33:01;23.30;;;5.87;;
20150;SDS011;10236;49.638;6.830;2023-01-10T11:35:30;25.67;;;4.67;;
20150;SDS011;10236;49.638;6.830;2023-01-10T11:41:05;23.90;;;4.90;;
20150;SDS011;10236;49.638;6.830;2023-01-10T11:43:36;23.77;;;5.33;;
20150;SDS011;10236;49.638;6.830;2023-01-10T11:46:12;24.23;;;5.37;;
20150;SDS011;10236;49.638;6.830;2023-01-10T11:48:44;25.47;;;5.13;;
20150;SDS011;10236;49.638;6.830;2023-01-10T11:53:48;20.43;;;5.47;;
20150;SDS011;10236;49.638;6.830;2023-01-10T11:56:24;21.23;;;5.03;;
20150;SDS011;10236;49.638;6.830;2023-01-10T11:58:56;20.90;;;4.93;;
20150;SDS011;10236;49.638;6.830;2023-01-10T12:01:41;25.23;;;5.73;;
20150;SDS011;10236;49.638;6.830;2023-01-10T12:04:17;23.27;;;5.37;;
20150;SDS011;10236;49.638;6.830;2023-01-10T12:06:51;20.63;;;4.87;;
20150;SDS011;10236;49.638;6.830;2023-01-10T12:12:25;20.90;;;4.70;;
20150;SDS011;10236;49.638;6.830;2023-01-10T12:14:58;26.13;;;5.87;;
20150;SDS011;10236;49.638;6.830;2023-01-10T12:17:30;20.60;;;5.30;;
20150;SDS011;10236;49.638;6.830;2023-01-10T12:19:59;25.20;;;5.33;;
20150;SDS011;10236;49.638;6.830;2023-01-10T12:22:43;21.23;;;4.70;;
20150;SDS011;10236;49.638;6.830;2023-01-10T12:25:41;22.67;;;5.17;;
20150;SDS011;10236;49.638;6.830;2023-01-10T12:28:19;30.70;;;5.47;;
20150;SDS011;10236;49.638;6.830;2023-01-10T12:30:46;26.27;;;6.30;;
20150;SDS011;10236;49.638;6.830;2023-01-10T12:33:18;21.80;;;5.20;;
20150;SDS011;10236;49.638;6.830;2023-01-10T12:38:39;22.47;;;5.23;;
20150;SDS011;10236;49.638;6.830;2023-01-10T12:41:34;27.90;;;5.87;;
20150;SDS011;10236;49.638;6.830;2023-01-10T12:47:10;20.53;;;4.97;;
20150;SDS011;10236;49.638;6.830;2023-01-10T12:52:45;21.00;;;5.33;;
20150;SDS011;10236;49.638;6.830;2023-01-10T12:55:17;20.50;;;4.33;;
20150;SDS011;10236;49.638;6.830;2023-01-10T12:57:46;21.97;;;5.27;;
20150;SDS011;10236;49.638;6.830;2023-01-10T13:00:22;29.13;;;5.40;;
20150;SDS011;10236;49.638;6.830;2023-01-10T13:02:56;25.03;;;4.87;;
20150;SDS011;10236;49.638;6.830;2023-01-10T13:05:24;17.70;;;4.17;;
20150;SDS011;10236;49.638;6.830;2023-01-10T13:08:09;20.27;;;4.30;;
20150;SDS011;10236;49.638;6.830;2023-01-10T13:10:38;18.33;;;4.23;;
20150;SDS011;10236;49.638;6.830;2023-01-10T13:16:19;17.77;;;4.00;;
20150;SDS011;10236;49.638;6.830;2023-01-10T13:24:57;24.83;;;4.33;;
20150;SDS011;10236;49.638;6.830;2023-01-10T13:27:31;16.33;;;4.00;;
20150;SDS011;10236;49.638;6.830;2023-01-10T13:33:14;14.73;;;3.53;;
20150;SDS011;10236;49.638;6.830;2023-01-10T13:36:06;21.73;;;4.53;;
20150;SDS011;10236;49.638;6.830;2023-01-10T13:38:38;22.03;;;3.80;;
20150;SDS011;10236;49.638;6.830;2023-01-10T13:41:09;22.97;;;4.50;;
20150;SDS011;10236;49.638;6.830;2023-01-10T13:44:03;22.47;;;5.10;;
20150;SDS011;10236;49.638;6.830;2023-01-10T13:46:39;22.80;;;5.40;;
20150;SDS011;10236;49.638;6.830;2023-01-10T13:51:37;13.97;;;3.83;;
20150;SDS011;10236;49.638;6.830;2023-01-10T13:56:45;23.47;;;3.03;;
20150;SDS011;10236;49.638;6.830;2023-01-10T14:01:58;24.13;;;4.37;;
20150;SDS011;10236;49.638;6.830;2023-01-10T14:04:44;33.03;;;10.60;;
20150;SDS011;10236;49.638;6.830;2023-01-10T14:07:15;22.67;;;4.70;;
20150;SDS011;10236;49.638;6.830;2023-01-10T14:09:43;26.10;;;4.53;;
20150;SDS011;10236;49.638;6.830;2023-01-10T14:14:59;24.37;;;5.00;;
20150;SDS011;10236;49.638;6.830;2023-01-10T14:17:37;23.77;;;6.00;;
20150;SDS011;10236;49.638;6.830;2023-01-10T14:20:16;26.53;;;5.10;;
20150;SDS011;10236;49.638;6.830;2023-01-10T14:25:31;23.00;;;5.27;;
20150;SDS011;10236;49.638;6.830;2023-01-10T14:28:11;18.60;;;4.37;;
20150;SDS011;10236;49.638;6.830;2023-01-10T14:30:45;21.83;;;6.23;;
20150;SDS011;10236;49.638;6.830;2023-01-10T14:33:19;26.07;;;4.83;;
20150;SDS011;10236;49.638;6.830;2023-01-10T14:35:48;20.67;;;3.40;;
20150;SDS011;10236;49.638;6.830;2023-01-10T14:38:38;23.60;;;4.33;;
20150;SDS011;10236;49.638;6.830;2023-01-10T14:41:12;19.90;;;3.47;;
20150;SDS011;10236;49.638;6.830;2023-01-10T14:52:19;27.27;;;4.57;;
20150;SDS011;10236;49.638;6.830;2023-01-10T14:58:00;14.27;;;3.77;;
20150;SDS011;10236;49.638;6.830;2023-01-10T15:00:30;30.27;;;4.13;;
20150;SDS011;10236;49.638;6.830;2023-01-10T15:03:05;22.00;;;4.60;;
20150;SDS011;10236;49.638;6.830;2023-01-10T15:05:38;15.97;;;3.87;;
20150;SDS011;10236;49.638;6.830;2023-01-10T15:08:14;24.13;;;5.00;;
20150;SDS011;10236;49.638;6.830;2023-01-10T15:10:40;24.30;;;4.93;;
20150;SDS011;10236;49.638;6.830;2023-01-10T15:13:06;17.17;;;4.93;;
20150;SDS011;10236;49.638;6.830;2023-01-10T15:15:34;18.67;;;3.97;;
20150;SDS011;10236;49.638;6.830;2023-01-10T15:18:02;19.93;;;4.67;;
20150;SDS011;10236;49.638;6.830;2023-01-10T15:20:34;17.97;;;5.07;;
20150;SDS011;10236;49.638;6.830;2023-01-10T15:23:00;24.57;;;4.90;;
20150;SDS011;10236;49.638;6.830;2023-01-10T15:25:33;28.50;;;4.90;;
20150;SDS011;10236;49.638;6.830;2023-01-10T15:28:02;23.53;;;4.00;;
20150;SDS011;10236;49.638;6.830;2023-01-10T15:30:29;30.20;;;4.97;;
20150;SDS011;10236;49.638;6.830;2023-01-10T15:33:23;19.23;;;4.87;;
20150;SDS011;10236;49.638;6.830;2023-01-10T15:35:46;22.47;;;3.73;;
20150;SDS011;10236;49.638;6.830;2023-01-10T15:38:13;25.30;;;4.27;;
20150;SDS011;10236;49.638;6.830;2023-01-10T15:40:40;18.70;;;4.07;;
20150;SDS011;10236;49.638;6.830;2023-01-10T15:45:43;17.03;;;4.00;;
20150;SDS011;10236;49.638;6.830;2023-01-10T15:50:57;19.60;;;3.63;;
20150;SDS011;10236;49.638;6.830;2023-01-10T15:56:14;22.70;;;3.53;;
20150;SDS011;10236;49.638;6.830;2023-01-10T15:58:47;23.93;;;3.97;;
20150;SDS011;10236;49.638;6.830;2023-01-10T16:01:16;22.37;;;3.80;;
20150;SDS011;10236;49.638;6.830;2023-01-10T16:09:30;19.80;;;4.00;;
20150;SDS011;10236;49.638;6.830;2023-01-10T16:11:56;18.77;;;4.03;;
20150;SDS011;10236;49.638;6.830;2023-01-10T16:14:41;18.60;;;3.33;;
20150;SDS011;10236;49.638;6.830;2023-01-10T16:17:07;18.03;;;3.60;;
20150;SDS011;10236;49.638;6.830;2023-01-10T16:19:36;19.63;;;4.47;;
20150;SDS011;10236;49.638;6.830;2023-01-10T16:25:30;15.20;;;3.57;;
20150;SDS011;10236;49.638;6.830;2023-01-10T16:27:57;18.00;;;4.20;;
20150;SDS011;10236;49.638;6.830;2023-01-10T16:30:28;19.27;;;4.60;;
20150;SDS011;10236;49.638;6.830;2023-01-10T16:32:55;19.17;;;4.13;;
20150;SDS011;10236;49.638;6.830;2023-01-10T16:35:26;27.13;;;5.47;;
20150;SDS011;10236;49.638;6.830;2023-01-10T16:37:58;21.67;;;4.80;;
20150;SDS011;10236;49.638;6.830;2023-01-10T16:40:51;25.27;;;5.10;;
20150;SDS011;10236;49.638;6.830;2023-01-10T16:43:19;16.23;;;4.20;;
20150;SDS011;10236;49.638;6.830;2023-01-10T16:45:46;21.93;;;5.43;;
20150;SDS011;10236;49.638;6.830;2023-01-10T16:48:12;19.87;;;4.43;;
20150;SDS011;10236;49.638;6.830;2023-01-10T16:50:42;21.53;;;4.23;;
20150;SDS011;10236;49.638;6.830;2023-01-10T16:53:09;20.43;;;5.63;;
20150;SDS011;10236;49.638;6.830;2023-01-10T16:58:08;17.93;;;5.40;;
20150;SDS011;10236;49.638;6.830;2023-01-10T17:00:34;29.60;;;8.80;;
20150;SDS011;10236;49.638;6.830;2023-01-10T17:03:01;18.17;;;5.30;;
20150;SDS011;10236;49.638;6.830;2023-01-10T17:05:31;14.30;;;5.03;;
20150;SDS011;10236;49.638;6.830;2023-01-10T17:08:01;20.27;;;6.43;;
20150;SDS011;10236;49.638;6.830;2023-01-10T17:10:28;17.53;;;5.67;;
20150;SDS011;10236;49.638;6.830;2023-01-10T17:12:55;34.17;;;12.27;;
20150;SDS011;10236;49.638;6.830;2023-01-10T17:15:21;11.37;;;2.70;;
20150;SDS011;10236;49.638;6.830;2023-01-10T17:17:50;17.47;;;6.70;;
20150;SDS011;10236;49.638;6.830;2023-01-10T17:20:23;13.13;;;3.90;;